Time;durP1;ratioP1;P1;durP2;ratioP2;P2;SDS_P1;SDS_P2;PMS_P1;PMS_P2;Temp;Humidity;BMP_temperature;BMP_pressure;BME280_temperature;BME280_humidity;BME280_pressure;Samples;Min_cycle;Max_cycle;Signal;HPM_P1;HPM_P2
2023/02/16 00:00:35;;;;;;;31.45;13.75;;;;;;;;;;2087133;28;20029;-77
2023/02/16 00:01:54;;;;;;;30.23;13.68;;;;;;;;;;2083660;28;20021;-77
2023/02/16 00:03:18;;;;;;;26.48;13.15;;;;;;;;;;2082473;28;20735;-77
2023/02/16 00:04:37;;;;;;;29.92;13.45;;;;;;;;;;2084329;28;20033;-78
2023/02/16 00:05:56;;;;;;;29.02;13.05;;;;;;;;;;2082508;28;20496;-77
2023/02/16 00:07:15;;;;;;;28.25;12.75;;;;;;;;;;2083952;28;20017;-77
2023/02/16 00:08:34;;;;;;;27.13;12.80;;;;;;;;;;2085157;28;20061;-77
2023/02/16 00:09:53;;;;;;;26.88;12.40;;;;;;;;;;2077921;28;20652;-77
2023/02/16 00:14:36;;;;;;;27.40;12.77;;;;;;;;;;2084397;28;20037;-76
2023/02/16 00:15:55;;;;;;;26.13;12.25;;;;;;;;;;2082663;28;20056;-77
2023/02/16 00:17:14;;;;;;;26.67;13.02;;;;;;;;;;2082387;28;20037;-77
2023/02/16 00:18:33;;;;;;;29.27;14.32;;;;;;;;;;2083904;28;20108;-78
2023/02/16 00:19:52;;;;;;;30.27;13.35;;;;;;;;;;2076347;28;20043;-79
2023/02/16 00:21:11;;;;;;;27.33;12.98;;;;;;;;;;2077758;28;20410;-78
2023/02/16 00:22:30;;;;;;;26.23;12.50;;;;;;;;;;2082473;28;20021;-77
2023/02/16 00:23:49;;;;;;;28.27;13.35;;;;;;;;;;2082209;28;20022;-78
2023/02/16 00:25:09;;;;;;;29.98;12.82;;;;;;;;;;2080230;28;20037;-78
2023/02/16 00:26:30;;;;;;;30.58;14.25;;;;;;;;;;2080901;28;20022;-78
2023/02/16 00:27:50;;;;;;;29.60;12.85;;;;;;;;;;2083497;28;20041;-77
2023/02/16 00:29:15;;;;;;;27.30;12.35;;;;;;;;;;2081694;28;20425;-77
2023/02/16 00:30:34;;;;;;;28.60;13.05;;;;;;;;;;2080884;28;20033;-77
2023/02/16 00:31:54;;;;;;;27.38;13.10;;;;;;;;;;2082056;28;20497;-78
2023/02/16 00:33:18;;;;;;;30.23;13.18;;;;;;;;;;2081489;28;20029;-77
2023/02/16 00:34:39;;;;;;;26.45;13.05;;;;;;;;;;2083790;28;20037;-76
2023/02/16 00:35:58;;;;;;;30.23;13.23;;;;;;;;;;2081434;28;20052;-77
2023/02/16 00:37:17;;;;;;;27.48;12.75;;;;;;;;;;2083869;28;20025;-78
2023/02/16 00:38:36;;;;;;;26.00;12.65;;;;;;;;;;2086065;28;20030;-78
2023/02/16 00:39:55;;;;;;;29.90;13.90;;;;;;;;;;2082504;28;20057;-77
2023/02/16 00:41:49;;;;;;;26.23;12.85;;;;;;;;;;2083621;28;20093;-77
2023/02/16 00:42:54;;;;;;;27.67;13.20;;;;;;;;;;2084261;28;20458;-78
2023/02/16 00:44:15;;;;;;;26.35;12.57;;;;;;;;;;2082838;28;20021;-77
2023/02/16 00:45:35;;;;;;;27.80;13.07;;;;;;;;;;2081419;28;20013;-77
2023/02/16 00:46:54;;;;;;;32.42;13.90;;;;;;;;;;2085697;28;20029;-78
2023/02/16 00:48:13;;;;;;;27.77;13.00;;;;;;;;;;2082206;28;20041;-78
2023/02/16 00:49:32;;;;;;;26.15;12.10;;;;;;;;;;2080401;28;20030;-77
2023/02/16 00:50:51;;;;;;;26.50;13.00;;;;;;;;;;2081780;28;20025;-78
2023/02/16 00:52:29;;;;;;;28.25;12.80;;;;;;;;;;2083159;28;20037;-77
2023/02/16 00:53:48;;;;;;;31.58;12.38;;;;;;;;;;2082772;28;20096;-78
2023/02/16 00:55:10;;;;;;;27.83;13.32;;;;;;;;;;2082714;28;20037;-78
2023/02/16 00:56:29;;;;;;;30.83;13.38;;;;;;;;;;2080831;28;20037;-77
2023/02/16 00:57:51;;;;;;;27.30;12.45;;;;;;;;;;2083461;28;20029;-77
2023/02/16 00:59:14;;;;;;;28.83;12.57;;;;;;;;;;2082634;28;20681;-77
2023/02/16 01:00:39;;;;;;;27.00;12.38;;;;;;;;;;2081803;28;20030;-77
2023/02/16 01:01:58;;;;;;;28.90;12.68;;;;;;;;;;2084877;28;20080;-77
2023/02/16 01:03:22;;;;;;;25.67;12.15;;;;;;;;;;2075214;28;20034;-78
2023/02/16 01:04:42;;;;;;;29.70;13.02;;;;;;;;;;2082376;28;20094;-77
2023/02/16 01:11:09;;;;;;;24.48;12.13;;;;;;;;;;2083479;28;20440;-78
2023/02/16 01:12:27;;;;;;;29.73;13.82;;;;;;;;;;2083758;28;20033;-77
2023/02/16 01:13:47;;;;;;;25.30;12.48;;;;;;;;;;2082481;28;20482;-77
2023/02/16 01:15:11;;;;;;;26.85;12.98;;;;;;;;;;2082414;28;20033;-77
2023/02/16 01:16:34;;;;;;;24.98;12.05;;;;;;;;;;2082935;28;20033;-77
2023/02/16 01:17:53;;;;;;;24.58;12.10;;;;;;;;;;2079932;28;20112;-78
2023/02/16 01:19:12;;;;;;;26.30;12.63;;;;;;;;;;2082929;28;20033;-78
2023/02/16 01:20:34;;;;;;;27.45;12.70;;;;;;;;;;2084703;28;20053;-77
2023/02/16 01:21:53;;;;;;;23.63;12.38;;;;;;;;;;2081632;28;20056;-77
2023/02/16 01:23:13;;;;;;;26.85;12.40;;;;;;;;;;2078068;28;20033;-78
2023/02/16 01:24:32;;;;;;;25.13;12.05;;;;;;;;;;2080526;28;20025;-78
2023/02/16 01:25:51;;;;;;;27.30;12.63;;;;;;;;;;2081945;28;20026;-77
2023/02/16 01:27:12;;;;;;;28.02;11.93;;;;;;;;;;2083594;28;20034;-78
2023/02/16 01:28:35;;;;;;;27.02;11.77;;;;;;;;;;2084360;28;20045;-77
2023/02/16 01:29:53;;;;;;;27.75;12.38;;;;;;;;;;2083380;28;20025;-77
2023/02/16 01:31:13;;;;;;;23.15;12.15;;;;;;;;;;2082333;28;20397;-78
2023/02/16 01:32:32;;;;;;;25.60;11.10;;;;;;;;;;2086960;28;20040;-78
2023/02/16 01:33:50;;;;;;;29.08;12.32;;;;;;;;;;2081694;28;20029;-78
2023/02/16 01:35:10;;;;;;;25.85;12.15;;;;;;;;;;2081808;28;20079;-79
2023/02/16 01:36:35;;;;;;;27.00;11.98;;;;;;;;;;2082222;28;20037;-79
2023/02/16 01:37:54;;;;;;;29.58;12.50;;;;;;;;;;2082689;28;20601;-78
2023/02/16 01:39:14;;;;;;;24.45;11.60;;;;;;;;;;2088689;28;20037;-78
2023/02/16 01:40:32;;;;;;;28.20;13.43;;;;;;;;;;2087658;28;20486;-77
2023/02/16 01:42:00;;;;;;;26.63;12.68;;;;;;;;;;2083702;28;20029;-78
2023/02/16 01:43:29;;;;;;;23.95;12.02;;;;;;;;;;2082810;28;20120;-78
2023/02/16 01:44:56;;;;;;;27.80;11.65;;;;;;;;;;2083326;28;20445;-78
2023/02/16 01:46:30;;;;;;;24.90;11.57;;;;;;;;;;2087222;28;20489;-77
2023/02/16 01:47:49;;;;;;;28.25;12.05;;;;;;;;;;2083080;28;20037;-78
2023/02/16 01:49:14;;;;;;;27.67;11.35;;;;;;;;;;2083923;28;20025;-78
2023/02/16 01:50:57;;;;;;;24.73;11.73;;;;;;;;;;2083859;28;20036;-78
2023/02/16 01:52:17;;;;;;;25.15;11.43;;;;;;;;;;2083207;28;20506;-78
2023/02/16 01:53:40;;;;;;;25.00;11.57;;;;;;;;;;2083379;28;20048;-77
2023/02/16 01:54:59;;;;;;;26.10;12.32;;;;;;;;;;2080405;28;20464;-78
2023/02/16 01:56:27;;;;;;;25.77;12.05;;;;;;;;;;2080595;28;20120;-77
2023/02/16 01:57:52;;;;;;;24.77;11.73;;;;;;;;;;2081647;28;20497;-78
2023/02/16 01:59:19;;;;;;;23.63;12.30;;;;;;;;;;2084835;28;20100;-78
2023/02/16 02:00:57;;;;;;;25.98;12.07;;;;;;;;;;2082750;28;20022;-77
2023/02/16 02:02:18;;;;;;;22.88;11.35;;;;;;;;;;2080233;28;20077;-77
2023/02/16 02:05:36;;;;;;;25.42;11.77;;;;;;;;;;2082740;28;20034;-78
2023/02/16 02:06:55;;;;;;;23.95;12.18;;;;;;;;;;2082549;28;20021;-77
2023/02/16 02:08:25;;;;;;;27.17;12.13;;;;;;;;;;2080484;28;20100;-78
2023/02/16 02:09:54;;;;;;;25.10;11.90;;;;;;;;;;2080383;28;20045;-79
2023/02/16 02:11:17;;;;;;;25.42;11.82;;;;;;;;;;2083458;28;20732;-77
2023/02/16 02:12:39;;;;;;;23.90;12.13;;;;;;;;;;2079863;28;20521;-78
2023/02/16 02:14:16;;;;;;;24.17;12.00;;;;;;;;;;2083264;28;20025;-77
2023/02/16 02:15:36;;;;;;;25.50;11.73;;;;;;;;;;2079342;28;20033;-77
2023/02/16 02:16:56;;;;;;;25.75;12.43;;;;;;;;;;2082354;28;20021;-78
2023/02/16 02:18:15;;;;;;;28.77;11.00;;;;;;;;;;2083834;28;20025;-78
2023/02/16 02:19:44;;;;;;;27.67;12.35;;;;;;;;;;2084378;28;20025;-78
2023/02/16 02:25:03;;;;;;;26.40;11.93;;;;;;;;;;2082746;28;20045;-77
2023/02/16 02:26:41;;;;;;;22.00;11.93;;;;;;;;;;2083049;28;20144;-77
2023/02/16 02:28:05;;;;;;;21.77;10.82;;;;;;;;;;2082138;28;20045;-77
2023/02/16 02:29:28;;;;;;;24.13;11.10;;;;;;;;;;2083342;28;20075;-77
2023/02/16 02:31:02;;;;;;;24.85;12.32;;;;;;;;;;2084121;28;20482;-78
2023/02/16 02:32:34;;;;;;;21.58;11.25;;;;;;;;;;2081370;28;20042;-77
2023/02/16 02:33:58;;;;;;;26.80;11.70;;;;;;;;;;2080520;28;20029;-77
2023/02/16 02:35:25;;;;;;;20.80;11.10;;;;;;;;;;2075756;28;20022;-78
2023/02/16 02:36:47;;;;;;;20.65;11.25;;;;;;;;;;2081223;28;20041;-77
2023/02/16 02:38:15;;;;;;;25.05;11.27;;;;;;;;;;2082495;28;20025;-77
2023/02/16 02:39:43;;;;;;;23.70;10.93;;;;;;;;;;2082111;28;20033;-79
2023/02/16 02:41:11;;;;;;;21.75;11.35;;;;;;;;;;2082301;28;20025;-77
2023/02/16 02:42:39;;;;;;;27.45;11.18;;;;;;;;;;2081730;28;20034;-77
2023/02/16 02:44:01;;;;;;;25.77;11.55;;;;;;;;;;2083194;28;20410;-77
2023/02/16 02:45:25;;;;;;;21.80;11.63;;;;;;;;;;2081783;28;20057;-77
2023/02/16 02:46:44;;;;;;;22.38;11.75;;;;;;;;;;2083920;28;20021;-77
2023/02/16 02:48:03;;;;;;;22.75;11.25;;;;;;;;;;2084537;28;20025;-77
2023/02/16 02:49:22;;;;;;;24.60;10.77;;;;;;;;;;2082712;28;20060;-78
2023/02/16 02:52:38;;;;;;;21.50;10.98;;;;;;;;;;2082943;28;20077;-77
2023/02/16 03:00:46;;;;;;;20.65;10.93;;;;;;;;;;2081763;28;20382;-78
2023/02/16 03:02:06;;;;;;;23.95;11.00;;;;;;;;;;2083556;28;20029;-77
2023/02/16 03:03:31;;;;;;;24.40;12.02;;;;;;;;;;2081125;28;20030;-77
2023/02/16 03:04:51;;;;;;;24.70;11.35;;;;;;;;;;2080083;28;20071;-77
2023/02/16 03:06:14;;;;;;;23.35;10.88;;;;;;;;;;2080914;28;20037;-77
2023/02/16 03:07:45;;;;;;;;;;;;;;;;;;2079952;28;20141;-77
2023/02/16 03:09:07;;;;;;;26.13;11.38;;;;;;;;;;2083629;28;19912;-77
2023/02/16 03:13:51;;;;;;;20.75;10.73;;;;;;;;;;2081399;28;20069;-77
2023/02/16 03:15:11;;;;;;;25.15;10.82;;;;;;;;;;2084134;28;20028;-77
2023/02/16 03:16:33;;;;;;;19.48;9.88;;;;;;;;;;2083999;28;20033;-77
2023/02/16 03:29:23;;;;;;;24.23;11.30;;;;;;;;;;2083868;28;20076;-77
2023/02/16 03:30:43;;;;;;;21.23;10.65;;;;;;;;;;2081812;28;20459;-78
2023/02/16 03:32:03;;;;;;;21.83;11.02;;;;;;;;;;2082823;28;20037;-78
2023/02/16 03:33:22;;;;;;;26.00;11.02;;;;;;;;;;2082543;28;20088;-77
2023/02/16 03:34:41;;;;;;;23.15;11.13;;;;;;;;;;2083173;28;20109;-78
2023/02/16 03:36:00;;;;;;;22.80;10.80;;;;;;;;;;2083557;28;20025;-77
2023/02/16 03:37:19;;;;;;;21.60;10.60;;;;;;;;;;2083222;28;20041;-77
2023/02/16 03:38:38;;;;;;;19.60;10.45;;;;;;;;;;2080401;28;20490;-77
2023/02/16 03:41:40;;;;;;;24.52;11.15;;;;;;;;;;2082909;28;20109;-77
2023/02/16 03:43:01;;;;;;;24.58;10.90;;;;;;;;;;2077733;28;20030;-78
2023/02/16 03:44:21;;;;;;;24.40;11.20;;;;;;;;;;2083715;28;20033;-78
2023/02/16 03:45:41;;;;;;;22.65;10.73;;;;;;;;;;2079144;28;20101;-77
2023/02/16 03:47:00;;;;;;;22.05;10.88;;;;;;;;;;2082584;28;20081;-78
2023/02/16 03:48:20;;;;;;;22.70;10.85;;;;;;;;;;2083142;28;20041;-78
2023/02/16 03:49:39;;;;;;;20.42;10.27;;;;;;;;;;2079207;28;20038;-78
2023/02/16 03:50:57;;;;;;;22.60;10.73;;;;;;;;;;2081411;28;20017;-77
2023/02/16 03:52:16;;;;;;;23.90;12.07;;;;;;;;;;2083038;28;20029;-78
2023/02/16 03:53:35;;;;;;;22.50;10.80;;;;;;;;;;2082430;28;20025;-77
2023/02/16 03:54:54;;;;;;;24.52;11.23;;;;;;;;;;2082453;28;20413;-78
2023/02/16 03:56:13;;;;;;;22.08;10.73;;;;;;;;;;2082915;28;20041;-77
2023/02/16 03:57:32;;;;;;;23.15;11.65;;;;;;;;;;2083057;28;20498;-77
2023/02/16 03:58:51;;;;;;;20.30;10.50;;;;;;;;;;2080669;28;20124;-78
2023/02/16 04:00:10;;;;;;;22.25;10.88;;;;;;;;;;2079944;28;20029;-77
2023/02/16 04:01:29;;;;;;;24.67;12.07;;;;;;;;;;2077455;28;20033;-78
2023/02/16 04:02:48;;;;;;;19.05;10.70;;;;;;;;;;2080333;28;20021;-78
2023/02/16 04:04:07;;;;;;;23.60;11.05;;;;;;;;;;2082425;28;20041;-78
2023/02/16 04:05:26;;;;;;;22.73;11.68;;;;;;;;;;2089777;28;20409;-77
2023/02/16 04:06:45;;;;;;;21.40;10.93;;;;;;;;;;2083536;28;20029;-77
2023/02/16 04:08:05;;;;;;;24.15;11.70;;;;;;;;;;2080656;28;20017;-78
2023/02/16 04:09:24;;;;;;;22.77;10.55;;;;;;;;;;2079048;28;20029;-78
2023/02/16 04:10:44;;;;;;;18.23;10.15;;;;;;;;;;2083615;28;20020;-77
2023/02/16 04:13:41;;;;;;;18.50;10.23;;;;;;;;;;2081695;28;20037;-78
2023/02/16 04:15:00;;;;;;;22.40;10.32;;;;;;;;;;2081696;28;20037;-78
2023/02/16 04:16:19;;;;;;;18.98;10.45;;;;;;;;;;2083621;28;20065;-78
2023/02/16 04:17:39;;;;;;;17.65;10.38;;;;;;;;;;2081735;28;20029;-77
2023/02/16 04:18:58;;;;;;;19.83;10.10;;;;;;;;;;2082271;28;20029;-78
2023/02/16 04:20:18;;;;;;;20.80;10.82;;;;;;;;;;2084821;28;20030;-78
2023/02/16 04:21:38;;;;;;;18.58;10.82;;;;;;;;;;2082911;28;20486;-78
2023/02/16 04:22:57;;;;;;;20.00;10.70;;;;;;;;;;2083927;28;20383;-77
2023/02/16 04:24:16;;;;;;;21.63;11.05;;;;;;;;;;2080029;28;20069;-77
2023/02/16 04:25:35;;;;;;;18.45;10.07;;;;;;;;;;2080588;28;20017;-78
2023/02/16 04:26:54;;;;;;;22.98;10.93;;;;;;;;;;2084418;28;20037;-77
2023/02/16 04:28:13;;;;;;;24.38;10.25;;;;;;;;;;2085287;28;20116;-78
2023/02/16 04:29:32;;;;;;;24.38;10.55;;;;;;;;;;2081888;28;20034;-78
2023/02/16 04:30:51;;;;;;;21.15;10.80;;;;;;;;;;2083838;28;20029;-77
2023/02/16 04:32:10;;;;;;;19.15;10.27;;;;;;;;;;2085810;28;20477;-78
2023/02/16 04:33:28;;;;;;;20.10;9.90;;;;;;;;;;2085315;28;20049;-77
2023/02/16 04:34:47;;;;;;;19.08;10.57;;;;;;;;;;2083283;28;20382;-77
2023/02/16 04:36:07;;;;;;;19.10;10.70;;;;;;;;;;2083233;28;20033;-77
2023/02/16 04:37:26;;;;;;;18.27;10.85;;;;;;;;;;2084514;28;20037;-77
2023/02/16 04:38:45;;;;;;;19.60;10.52;;;;;;;;;;2086746;28;20037;-77
2023/02/16 04:40:04;;;;;;;21.25;10.77;;;;;;;;;;2082804;28;20037;-77
2023/02/16 04:41:25;;;;;;;18.67;10.63;;;;;;;;;;2081295;28;20121;-78
2023/02/16 04:42:44;;;;;;;21.98;10.73;;;;;;;;;;2081471;28;20017;-78
2023/02/16 04:44:03;;;;;;;20.92;10.32;;;;;;;;;;2083750;28;20037;-78
2023/02/16 04:45:22;;;;;;;17.73;10.43;;;;;;;;;;2083915;28;20037;-78
2023/02/16 04:46:41;;;;;;;22.58;10.82;;;;;;;;;;2083624;28;20034;-77
2023/02/16 04:48:00;;;;;;;25.45;10.55;;;;;;;;;;2082199;28;20096;-77
2023/02/16 04:49:19;;;;;;;20.92;11.10;;;;;;;;;;2083758;28;20406;-77
2023/02/16 04:50:38;;;;;;;16.70;9.30;;;;;;;;;;2083031;28;20464;-78
2023/02/16 04:51:57;;;;;;;21.60;11.10;;;;;;;;;;2081928;28;20033;-78
2023/02/16 04:53:16;;;;;;;19.13;10.18;;;;;;;;;;2078750;28;20049;-78
2023/02/16 04:54:35;;;;;;;16.63;9.63;;;;;;;;;;2084103;28;20021;-78
2023/02/16 04:55:54;;;;;;;20.15;9.85;;;;;;;;;;2085470;28;20025;-78
2023/02/16 04:57:12;;;;;;;16.55;10.25;;;;;;;;;;2084025;28;20033;-78
2023/02/16 04:58:31;;;;;;;20.55;10.75;;;;;;;;;;2082904;28;20031;-78
2023/02/16 04:59:50;;;;;;;22.73;11.52;;;;;;;;;;2084221;28;20057;-78
2023/02/16 05:01:17;;;;;;;16.38;9.25;;;;;;;;;;2083477;28;20029;-78
2023/02/16 05:02:35;;;;;;;18.15;10.30;;;;;;;;;;2084033;28;20032;-78
2023/02/16 05:03:54;;;;;;;21.40;11.00;;;;;;;;;;2081215;28;20026;-77
2023/02/16 05:05:13;;;;;;;18.30;10.30;;;;;;;;;;2082048;28;20033;-78
2023/02/16 05:06:32;;;;;;;14.95;8.93;;;;;;;;;;2083334;28;20030;-77
2023/02/16 05:07:51;;;;;;;17.02;8.70;;;;;;;;;;2080607;28;20018;-78
2023/02/16 05:09:10;;;;;;;19.55;10.05;;;;;;;;;;2083316;28;20029;-79
2023/02/16 05:10:29;;;;;;;18.40;9.50;;;;;;;;;;2081194;28;20037;-77
2023/02/16 05:15:04;;;;;;;16.80;8.27;;;;;;;;;;2081968;28;20059;-78
2023/02/16 05:16:23;;;;;;;14.60;8.52;;;;;;;;;;2083183;28;20021;-77
2023/02/16 05:17:42;;;;;;;11.38;7.78;;;;;;;;;;2080438;28;20033;-79
2023/02/16 05:19:01;;;;;;;13.70;7.65;;;;;;;;;;2084661;28;20029;-77
2023/02/16 05:21:28;;;;;;;14.13;7.70;;;;;;;;;;2084258;28;20033;-78
2023/02/16 05:21:59;;;;;;;11.60;7.40;;;;;;;;;;2084536;28;20026;-78
2023/02/16 05:23:18;;;;;;;15.82;8.70;;;;;;;;;;2083958;28;20029;-78
2023/02/16 05:24:37;;;;;;;11.25;7.38;;;;;;;;;;2082377;28;20025;-78
2023/02/16 05:25:56;;;;;;;13.82;8.13;;;;;;;;;;2083676;28;20025;-78
2023/02/16 05:27:25;;;;;;;12.30;8.15;;;;;;;;;;2083882;28;20021;-78
2023/02/16 05:28:44;;;;;;;12.65;7.55;;;;;;;;;;2085889;28;20020;-78
2023/02/16 05:30:03;;;;;;;16.05;7.63;;;;;;;;;;2084661;28;20029;-79
2023/02/16 05:31:22;;;;;;;18.05;8.30;;;;;;;;;;2082552;28;20033;-77
2023/02/16 05:32:41;;;;;;;14.70;8.07;;;;;;;;;;2084679;28;20109;-78
2023/02/16 05:34:00;;;;;;;14.02;7.88;;;;;;;;;;2080285;28;20025;-77
2023/02/16 05:35:19;;;;;;;12.02;7.55;;;;;;;;;;2083400;28;20041;-78
2023/02/16 05:36:38;;;;;;;11.13;7.35;;;;;;;;;;2079495;28;20120;-77
2023/02/16 05:37:58;;;;;;;11.95;7.78;;;;;;;;;;2083010;28;20029;-77
2023/02/16 05:39:17;;;;;;;13.05;7.65;;;;;;;;;;2082339;28;20507;-77
2023/02/16 05:40:36;;;;;;;14.15;7.55;;;;;;;;;;2082947;28;20037;-77
2023/02/16 05:41:54;;;;;;;11.20;7.40;;;;;;;;;;2084055;28;20025;-77
2023/02/16 05:43:13;;;;;;;13.88;8.57;;;;;;;;;;2082232;28;20037;-78
2023/02/16 05:44:32;;;;;;;15.32;7.78;;;;;;;;;;2082984;28;20418;-78
2023/02/16 05:45:51;;;;;;;14.07;7.82;;;;;;;;;;2083304;28;20104;-79
2023/02/16 05:47:11;;;;;;;13.00;8.55;;;;;;;;;;2081418;28;20498;-77
2023/02/16 05:48:30;;;;;;;14.50;8.45;;;;;;;;;;2077278;28;20546;-78
2023/02/16 05:49:49;;;;;;;10.98;7.57;;;;;;;;;;2082265;28;20045;-78
2023/02/16 05:51:08;;;;;;;13.02;8.30;;;;;;;;;;2085000;28;20030;-78
2023/02/16 05:52:27;;;;;;;14.30;8.45;;;;;;;;;;2081342;28;20344;-80
2023/02/16 05:53:46;;;;;;;14.25;8.00;;;;;;;;;;2082495;28;20033;-82
2023/02/16 05:55:05;;;;;;;12.25;8.05;;;;;;;;;;2081665;28;20025;-80
2023/02/16 05:56:25;;;;;;;13.32;8.60;;;;;;;;;;2085158;28;20026;-83
2023/02/16 05:57:44;;;;;;;14.32;8.18;;;;;;;;;;2074960;28;20034;-79
2023/02/16 05:59:03;;;;;;;12.60;7.28;;;;;;;;;;2080893;28;20025;-78
2023/02/16 06:00:22;;;;;;;15.15;8.68;;;;;;;;;;2084395;28;20029;-80
2023/02/16 06:01:41;;;;;;;14.45;7.70;;;;;;;;;;2082364;28;20034;-77
2023/02/16 06:03:00;;;;;;;10.43;7.40;;;;;;;;;;2081358;28;20562;-78
2023/02/16 06:04:20;;;;;;;13.50;7.80;;;;;;;;;;2081970;28;20124;-79
2023/02/16 06:05:39;;;;;;;11.68;7.35;;;;;;;;;;2079811;28;20505;-79
2023/02/16 06:06:59;;;;;;;10.23;6.93;;;;;;;;;;2078521;28;20483;-78
2023/02/16 06:08:18;;;;;;;11.65;7.95;;;;;;;;;;2084743;28;20069;-78
2023/02/16 06:09:37;;;;;;;13.57;7.32;;;;;;;;;;2085483;28;20033;-78
2023/02/16 06:10:56;;;;;;;9.07;7.43;;;;;;;;;;2081721;28;20628;-78
2023/02/16 06:12:15;;;;;;;11.15;7.57;;;;;;;;;;2084734;28;20115;-78
2023/02/16 06:13:34;;;;;;;12.07;6.88;;;;;;;;;;2082170;28;20025;-79
2023/02/16 06:14:54;;;;;;;13.20;7.38;;;;;;;;;;2081743;28;20025;-78
2023/02/16 06:16:13;;;;;;;14.25;8.15;;;;;;;;;;2080250;28;20033;-79
2023/02/16 06:17:32;;;;;;;12.55;7.78;;;;;;;;;;2080293;28;20061;-77
2023/02/16 06:18:51;;;;;;;11.63;6.97;;;;;;;;;;2084500;28;20017;-77
2023/02/16 06:20:10;;;;;;;13.90;7.47;;;;;;;;;;2084349;28;20029;-78
2023/02/16 06:21:29;;;;;;;12.90;7.55;;;;;;;;;;2082919;28;20029;-78
2023/02/16 06:22:49;;;;;;;13.50;7.95;;;;;;;;;;2089046;28;20405;-78
2023/02/16 06:24:08;;;;;;;11.05;7.57;;;;;;;;;;2083379;28;20042;-78
2023/02/16 06:25:28;;;;;;;10.13;6.97;;;;;;;;;;2078693;28;20013;-79
2023/02/16 06:26:47;;;;;;;11.27;7.03;;;;;;;;;;2086049;28;20056;-79
2023/02/16 06:28:06;;;;;;;12.38;7.30;;;;;;;;;;2078890;28;20041;-79
2023/02/16 06:29:24;;;;;;;12.57;8.13;;;;;;;;;;2081958;28;20025;-78
2023/02/16 06:30:43;;;;;;;12.25;7.50;;;;;;;;;;2079213;28;20021;-78
2023/02/16 06:32:02;;;;;;;14.65;8.65;;;;;;;;;;2083097;28;20049;-78
2023/02/16 06:33:21;;;;;;;11.23;6.78;;;;;;;;;;2080923;28;20112;-78
2023/02/16 06:34:40;;;;;;;11.75;7.25;;;;;;;;;;2075472;28;20026;-78
2023/02/16 06:35:59;;;;;;;10.93;7.07;;;;;;;;;;2080587;28;20464;-79
2023/02/16 06:37:18;;;;;;;12.93;7.70;;;;;;;;;;2082245;28;20492;-78
2023/02/16 06:38:37;;;;;;;14.77;7.53;;;;;;;;;;2082333;28;20030;-78
2023/02/16 06:39:56;;;;;;;11.10;7.03;;;;;;;;;;2081784;28;20029;-79
2023/02/16 06:41:29;;;;;;;13.68;7.03;;;;;;;;;;2080866;28;20030;-78
2023/02/16 06:42:49;;;;;;;11.57;6.82;;;;;;;;;;2084640;28;20021;-78
2023/02/16 06:44:11;;;;;;;13.35;7.15;;;;;;;;;;2084165;28;20022;-79
2023/02/16 06:45:29;;;;;;;10.98;7.28;;;;;;;;;;2082214;28;20029;-78
2023/02/16 06:46:48;;;;;;;10.57;7.00;;;;;;;;;;2081051;28;20053;-78
2023/02/16 06:48:07;;;;;;;13.38;8.18;;;;;;;;;;2083219;28;20028;-78
2023/02/16 06:49:26;;;;;;;10.27;6.32;;;;;;;;;;2081297;28;20029;-80
2023/02/16 06:50:45;;;;;;;10.75;6.68;;;;;;;;;;2079508;28;20108;-78
2023/02/16 06:52:04;;;;;;;12.20;6.85;;;;;;;;;;2080671;28;20529;-78
2023/02/16 06:53:24;;;;;;;10.93;6.47;;;;;;;;;;2081407;28;20038;-77
2023/02/16 06:54:43;;;;;;;7.95;6.03;;;;;;;;;;2081363;28;20026;-78
2023/02/16 06:56:02;;;;;;;9.50;6.60;;;;;;;;;;2082934;28;20517;-77
2023/02/16 06:57:23;;;;;;;12.95;6.60;;;;;;;;;;2081542;28;20496;-76
2023/02/16 06:58:41;;;;;;;12.20;7.50;;;;;;;;;;2089293;28;20029;-76
2023/02/16 07:00:00;;;;;;;11.02;6.90;;;;;;;;;;2082044;28;20148;-77
2023/02/16 07:01:21;;;;;;;13.57;7.28;;;;;;;;;;2092012;28;20033;-78
2023/02/16 07:02:42;;;;;;;11.90;7.25;;;;;;;;;;2082259;28;20045;-77
2023/02/16 07:04:01;;;;;;;17.52;8.00;;;;;;;;;;2087574;28;20390;-76
2023/02/16 07:05:22;;;;;;;13.23;7.53;;;;;;;;;;2082400;28;20033;-77
2023/02/16 07:06:41;;;;;;;13.98;7.90;;;;;;;;;;2084005;28;20021;-77
2023/02/16 07:08:00;;;;;;;13.02;7.47;;;;;;;;;;2084792;28;20033;-76
2023/02/16 07:09:19;;;;;;;10.70;7.03;;;;;;;;;;2082229;28;20033;-77
2023/02/16 07:10:41;;;;;;;13.57;7.57;;;;;;;;;;2083387;28;20021;-79
2023/02/16 07:11:59;;;;;;;14.63;7.75;;;;;;;;;;2080564;28;20079;-76
2023/02/16 07:13:18;;;;;;;10.65;7.47;;;;;;;;;;2077746;28;20193;-77
2023/02/16 07:14:37;;;;;;;17.17;8.50;;;;;;;;;;2083576;28;20029;-76
2023/02/16 07:15:56;;;;;;;11.50;6.93;;;;;;;;;;2083749;28;20406;-77
2023/02/16 07:17:15;;;;;;;14.23;8.05;;;;;;;;;;2081812;28;20037;-77
2023/02/16 07:18:34;;;;;;;18.67;8.65;;;;;;;;;;2081118;28;20033;-77
2023/02/16 07:19:54;;;;;;;11.25;7.93;;;;;;;;;;2082512;28;20017;-77
2023/02/16 07:21:13;;;;;;;11.63;7.88;;;;;;;;;;2083217;28;20033;-77
2023/02/16 07:22:32;;;;;;;11.60;7.78;;;;;;;;;;2084422;28;20036;-76
2023/02/16 07:23:51;;;;;;;14.38;8.45;;;;;;;;;;2082204;28;20481;-77
2023/02/16 07:25:10;;;;;;;13.77;8.70;;;;;;;;;;2085210;28;20089;-76
2023/02/16 07:26:29;;;;;;;15.00;8.73;;;;;;;;;;2082530;28;20415;-78
2023/02/16 07:27:49;;;;;;;13.25;7.95;;;;;;;;;;2079748;28;20042;-77
2023/02/16 07:29:08;;;;;;;15.45;8.65;;;;;;;;;;2081477;28;20034;-79
2023/02/16 07:30:27;;;;;;;12.57;7.93;;;;;;;;;;2083967;28;20033;-77
2023/02/16 07:31:46;;;;;;;13.90;7.95;;;;;;;;;;2080877;28;20036;-77
2023/02/16 07:33:05;;;;;;;15.90;8.77;;;;;;;;;;2079547;28;20798;-76
2023/02/16 07:34:24;;;;;;;12.32;7.65;;;;;;;;;;2079076;28;20490;-77
2023/02/16 07:35:43;;;;;;;10.88;7.93;;;;;;;;;;2083095;28;20069;-76
2023/02/16 07:37:02;;;;;;;14.00;8.27;;;;;;;;;;2080878;28;20474;-78
2023/02/16 07:38:21;;;;;;;11.82;7.55;;;;;;;;;;2080887;28;20037;-79
2023/02/16 07:39:40;;;;;;;12.23;8.20;;;;;;;;;;2079617;28;20506;-75
2023/02/16 07:40:59;;;;;;;11.23;7.05;;;;;;;;;;2087430;28;20536;-74
2023/02/16 07:42:18;;;;;;;15.13;8.85;;;;;;;;;;2086646;28;20033;-75
2023/02/16 07:43:38;;;;;;;14.07;7.60;;;;;;;;;;2083390;28;20029;-74
2023/02/16 07:44:57;;;;;;;11.57;7.80;;;;;;;;;;2084380;28;20017;-75
2023/02/16 07:46:16;;;;;;;13.20;8.35;;;;;;;;;;2082923;28;20534;-74
2023/02/16 07:47:35;;;;;;;14.68;9.05;;;;;;;;;;2079432;28;20367;-77
2023/02/16 07:48:54;;;;;;;12.27;8.00;;;;;;;;;;2081847;28;20096;-78
2023/02/16 07:50:13;;;;;;;10.50;7.30;;;;;;;;;;2076709;28;20037;-76
2023/02/16 07:51:32;;;;;;;13.70;8.05;;;;;;;;;;2079884;28;20513;-75
2023/02/16 07:52:51;;;;;;;15.23;8.98;;;;;;;;;;2081063;28;20026;-76
2023/02/16 07:54:10;;;;;;;12.25;7.97;;;;;;;;;;2082218;28;20030;-76
2023/02/16 07:55:29;;;;;;;14.93;8.57;;;;;;;;;;2081845;28;20029;-77
2023/02/16 07:56:48;;;;;;;12.65;8.10;;;;;;;;;;2080642;28;20033;-77
2023/02/16 07:58:07;;;;;;;12.38;8.00;;;;;;;;;;2079841;28;20025;-77
2023/02/16 07:59:26;;;;;;;14.60;8.13;;;;;;;;;;2079670;28;20120;-76
2023/02/16 08:00:45;;;;;;;11.25;7.68;;;;;;;;;;2080690;28;20025;-76
2023/02/16 08:02:04;;;;;;;15.00;8.07;;;;;;;;;;2085437;28;20021;-77
2023/02/16 08:03:23;;;;;;;12.85;7.93;;;;;;;;;;2082792;28;20107;-76
2023/02/16 08:04:42;;;;;;;12.70;7.47;;;;;;;;;;2081538;28;20025;-77
2023/02/16 08:06:02;;;;;;;12.88;7.82;;;;;;;;;;2075845;28;20547;-76
2023/02/16 08:07:22;;;;;;;13.57;8.20;;;;;;;;;;2080107;28;20025;-76
2023/02/16 08:08:41;;;;;;;13.40;8.07;;;;;;;;;;2084638;28;20108;-78
2023/02/16 08:10:00;;;;;;;12.55;7.88;;;;;;;;;;2083376;28;20022;-76
2023/02/16 08:11:20;;;;;;;13.18;7.60;;;;;;;;;;2080946;28;20053;-77
2023/02/16 08:12:39;;;;;;;13.70;7.97;;;;;;;;;;2090313;28;20522;-77
2023/02/16 08:14:01;;;;;;;12.95;8.30;;;;;;;;;;2084469;28;20037;-77
2023/02/16 08:15:20;;;;;;;18.80;8.43;;;;;;;;;;2084753;28;20494;-77
2023/02/16 08:16:40;;;;;;;15.18;8.43;;;;;;;;;;2083708;28;20025;-79
2023/02/16 08:17:58;;;;;;;13.38;8.00;;;;;;;;;;2083602;28;20025;-77
2023/02/16 08:19:17;;;;;;;15.13;8.07;;;;;;;;;;2078281;28;20029;-77
2023/02/16 08:20:37;;;;;;;14.00;8.32;;;;;;;;;;2084401;28;20026;-77
2023/02/16 08:21:57;;;;;;;15.07;8.68;;;;;;;;;;2092266;28;20025;-77
2023/02/16 08:23:16;;;;;;;13.98;9.15;;;;;;;;;;2084846;28;20053;-78
2023/02/16 08:24:36;;;;;;;13.18;8.63;;;;;;;;;;2091653;28;20025;-76
2023/02/16 08:25:57;;;;;;;15.50;8.77;;;;;;;;;;2079447;28;20025;-80
2023/02/16 08:27:16;;;;;;;14.52;8.48;;;;;;;;;;2082637;28;20382;-77
2023/02/16 08:28:37;;;;;;;13.57;8.65;;;;;;;;;;2082785;28;20033;-78
2023/02/16 08:29:56;;;;;;;13.45;8.20;;;;;;;;;;2082034;28;20049;-78
2023/02/16 08:31:15;;;;;;;15.52;8.88;;;;;;;;;;2082321;28;20482;-77
2023/02/16 08:32:34;;;;;;;16.58;9.68;;;;;;;;;;2085351;28;20057;-78
2023/02/16 08:33:54;;;;;;;19.13;9.30;;;;;;;;;;2083000;28;20029;-77
2023/02/16 08:35:14;;;;;;;13.18;8.65;;;;;;;;;;2080973;28;20084;-77
2023/02/16 08:36:34;;;;;;;16.15;9.02;;;;;;;;;;2084329;28;20057;-77